Time;durP1;ratioP1;P1;durP2;ratioP2;P2;SDS_P1;SDS_P2;PMS_P1;PMS_P2;Temp;Humidity;BMP_temperature;BMP_pressure;BME280_temperature;BME280_humidity;BME280_pressure;Samples;Min_cycle;Max_cycle;Signal;HPM_P1;HPM_P2
2023/10/12 00:00:48;;;;;;;16.58;5.15;;;16.50;99.90;;;;;;5053636;28;20229;-60
2023/10/12 00:03:16;;;;;;;14.05;5.47;;;16.50;99.90;;;;;;5053657;28;20276;-60
2023/10/12 00:05:45;;;;;;;18.92;5.75;;;16.50;99.90;;;;;;5053605;28;20225;-60
2023/10/12 00:08:29;;;;;;;11.32;5.28;;;16.40;99.90;;;;;;5053802;28;20251;-60
2023/10/12 00:11:04;;;;;;;11.48;5.13;;;16.40;99.90;;;;;;5053226;28;20236;-60
2023/10/12 00:13:33;;;;;;;17.05;5.50;;;16.40;99.90;;;;;;5053740;28;20212;-60
2023/10/12 00:16:02;;;;;;;12.05;5.32;;;16.30;99.90;;;;;;5053453;28;20202;-60
2023/10/12 00:18:34;;;;;;;16.85;5.65;;;16.30;99.90;;;;;;5058383;28;20588;-59
2023/10/12 00:21:15;;;;;;;11.85;5.47;;;16.30;99.90;;;;;;5070597;28;20717;-60
2023/10/12 00:23:46;;;;;;;14.55;5.10;;;16.30;99.90;;;;;;5073319;28;20212;-60
2023/10/12 00:26:17;;;;;;;13.90;4.70;;;16.30;99.90;;;;;;5057506;28;20233;-60
2023/10/12 00:28:46;;;;;;;12.63;5.30;;;16.30;99.90;;;;;;5073458;28;20319;-60
2023/10/12 00:31:18;;;;;;;16.65;5.43;;;16.30;99.90;;;;;;5072978;28;20264;-60
2023/10/12 00:33:49;;;;;;;14.38;5.50;;;16.30;99.90;;;;;;5073231;28;20209;-60
2023/10/12 00:36:24;;;;;;;22.63;5.38;;;16.20;99.90;;;;;;5069913;28;20202;-60
2023/10/12 00:38:56;;;;;;;12.07;4.93;;;16.20;99.90;;;;;;5053047;28;20623;-60
2023/10/12 00:41:29;;;;;;;19.13;5.15;;;16.20;99.90;;;;;;5065242;28;20235;-60
2023/10/12 00:44:08;;;;;;;13.95;5.43;;;16.10;99.90;;;;;;5073043;28;20244;-60
2023/10/12 00:49:20;;;;;;;19.25;5.30;;;16.10;99.90;;;;;;5070825;28;20288;-60
2023/10/12 00:51:52;;;;;;;15.00;5.53;;;16.10;99.90;;;;;;5072545;28;20682;-60
2023/10/12 00:54:27;;;;;;;12.27;5.30;;;16.00;99.90;;;;;;5072648;28;20209;-60
2023/10/12 00:56:57;;;;;;;13.50;4.72;;;16.00;99.90;;;;;;5072568;28;20281;-60
2023/10/12 00:59:27;;;;;;;10.82;5.55;;;16.00;99.90;;;;;;5072604;28;20730;-60
2023/10/12 01:01:55;;;;;;;13.40;4.90;;;16.00;99.90;;;;;;5072315;28;20662;-60
2023/10/12 01:04:23;;;;;;;15.80;5.40;;;16.00;99.90;;;;;;5072822;28;20251;-60
2023/10/12 01:06:51;;;;;;;14.90;5.60;;;16.00;99.90;;;;;;5072269;28;20702;-60
2023/10/12 01:09:19;;;;;;;12.38;5.53;;;16.00;99.90;;;;;;5072253;28;20207;-60
2023/10/12 01:11:57;;;;;;;14.10;4.88;;;16.00;99.90;;;;;;5072112;28;20822;-60
2023/10/12 01:14:29;;;;;;;12.75;5.07;;;16.00;99.90;;;;;;5072620;28;20216;-60
2023/10/12 01:16:58;;;;;;;13.18;4.97;;;16.00;99.90;;;;;;5069896;28;20633;-60
2023/10/12 01:19:30;;;;;;;12.60;4.75;;;16.00;99.90;;;;;;5060925;28;20239;-60
2023/10/12 01:22:12;;;;;;;10.18;4.93;;;16.00;99.90;;;;;;5062718;28;20205;-60
2023/10/12 01:24:45;;;;;;;13.93;5.53;;;16.00;99.90;;;;;;5066327;28;20303;-60
2023/10/12 01:27:14;;;;;;;12.07;4.50;;;16.00;99.90;;;;;;5069752;28;20260;-60
2023/10/12 01:29:42;;;;;;;14.60;5.13;;;15.90;99.90;;;;;;5063230;28;20225;-60
2023/10/12 01:32:27;;;;;;;10.10;5.30;;;15.90;99.90;;;;;;5070288;28;20270;-60
2023/10/12 01:34:56;;;;;;;10.35;5.43;;;15.80;99.90;;;;;;5052017;28;20208;-60
2023/10/12 01:37:26;;;;;;;10.65;4.97;;;15.80;99.90;;;;;;5070866;28;20299;-60
2023/10/12 01:40:10;;;;;;;13.30;5.20;;;15.80;99.90;;;;;;5063774;28;20595;-60
2023/10/12 01:42:49;;;;;;;12.65;5.28;;;15.80;99.90;;;;;;5051978;28;20205;-60
2023/10/12 01:45:31;;;;;;;12.98;5.63;;;15.70;99.90;;;;;;5051736;28;20210;-60
2023/10/12 01:48:07;;;;;;;19.73;4.75;;;15.80;99.90;;;;;;5051802;28;20206;-59
2023/10/12 01:50:37;;;;;;;14.85;5.18;;;15.80;99.90;;;;;;5051611;28;20229;-60
2023/10/12 01:53:17;;;;;;;16.67;4.82;;;15.70;99.90;;;;;;5051824;28;20252;-60
2023/10/12 01:55:45;;;;;;;12.13;4.80;;;15.70;99.90;;;;;;5056961;28;20205;-60
2023/10/12 01:58:16;;;;;;;15.48;5.22;;;15.70;99.90;;;;;;5071445;28;20208;-60
2023/10/12 02:00:51;;;;;;;9.40;5.15;;;15.60;99.90;;;;;;5056751;28;20320;-60
2023/10/12 02:03:26;;;;;;;16.02;5.65;;;15.60;99.90;;;;;;5051544;28;20237;-60
2023/10/12 02:06:04;;;;;;;13.75;5.43;;;15.50;99.90;;;;;;5050513;28;20231;-60
2023/10/12 02:08:39;;;;;;;12.35;4.63;;;15.50;99.90;;;;;;5059418;28;20343;-60
2023/10/12 02:11:11;;;;;;;10.75;4.85;;;15.50;99.90;;;;;;5051105;28;20251;-60
2023/10/12 02:13:41;;;;;;;14.23;5.10;;;15.50;99.90;;;;;;5051545;28;20209;-60
2023/10/12 02:16:12;;;;;;;10.02;5.60;;;15.50;99.90;;;;;;5051363;28;20201;-60
2023/10/12 02:18:43;;;;;;;10.60;4.57;;;15.50;99.90;;;;;;5051419;28;20296;-60
2023/10/12 02:21:11;;;;;;;13.43;5.15;;;15.50;99.90;;;;;;5050949;28;20233;-59
2023/10/12 02:23:56;;;;;;;12.95;5.10;;;15.50;99.90;;;;;;5059333;28;20613;-60
2023/10/12 02:26:32;;;;;;;19.02;5.53;;;15.40;99.90;;;;;;5058166;28;20228;-60
2023/10/12 02:29:11;;;;;;;14.10;5.53;;;15.40;99.90;;;;;;5071265;28;20290;-60
2023/10/12 02:31:39;;;;;;;13.50;5.07;;;15.40;99.90;;;;;;5059235;28;20220;-60
2023/10/12 02:34:13;;;;;;;11.95;5.05;;;15.30;99.90;;;;;;5051018;28;20570;-60
2023/10/12 02:36:41;;;;;;;16.25;5.28;;;15.40;99.90;;;;;;5055886;28;20575;-60
2023/10/12 02:39:15;;;;;;;15.48;5.90;;;15.40;99.90;;;;;;5071164;28;20208;-60
2023/10/12 02:41:51;;;;;;;13.48;5.03;;;15.40;99.90;;;;;;5056890;28;20490;-60
2023/10/12 02:44:19;;;;;;;8.90;4.88;;;15.40;99.90;;;;;;5057718;28;20296;-60
2023/10/12 02:47:11;;;;;;;14.25;5.55;;;15.40;99.90;;;;;;5062827;28;20316;-59
2023/10/12 02:49:39;;;;;;;9.05;5.22;;;15.40;99.90;;;;;;5065838;28;20714;-60
2023/10/12 02:52:08;;;;;;;8.80;4.60;;;15.40;99.90;;;;;;5066582;28;20284;-60
2023/10/12 02:54:49;;;;;;;13.95;4.78;;;15.40;99.90;;;;;;5066170;28;20244;-60
2023/10/12 02:57:21;;;;;;;11.10;5.30;;;15.40;99.90;;;;;;5051159;28;20194;-60
2023/10/12 02:59:57;;;;;;;9.80;5.05;;;15.40;99.90;;;;;;5050646;28;20250;-59
2023/10/12 03:02:32;;;;;;;11.60;5.05;;;15.40;99.90;;;;;;5050761;28;20202;-60
2023/10/12 03:05:01;;;;;;;15.82;4.90;;;15.40;99.90;;;;;;5050652;28;20220;-60
2023/10/12 03:07:29;;;;;;;17.80;5.28;;;15.40;99.90;;;;;;5062996;28;20221;-60
2023/10/12 03:09:59;;;;;;;12.70;5.22;;;15.40;99.90;;;;;;5070670;28;20253;-60
2023/10/12 03:12:33;;;;;;;8.82;4.82;;;15.30;99.90;;;;;;5067387;28;20228;-60
2023/10/12 03:15:11;;;;;;;15.45;5.15;;;15.40;99.90;;;;;;5050578;28;20202;-60
2023/10/12 03:17:41;;;;;;;11.30;4.88;;;15.30;99.90;;;;;;5066827;28;20207;-60
2023/10/12 03:20:20;;;;;;;12.45;5.00;;;15.40;99.90;;;;;;5074355;28;20233;-60
2023/10/12 03:22:52;;;;;;;18.15;5.40;;;15.40;99.90;;;;;;5074442;28;20685;-60
2023/10/12 03:25:37;;;;;;;8.73;4.65;;;15.40;99.90;;;;;;5069928;28;20696;-60
2023/10/12 03:28:12;;;;;;;13.00;5.80;;;15.40;99.90;;;;;;5074283;28;20256;-60
2023/10/12 03:30:52;;;;;;;15.80;4.85;;;15.40;99.90;;;;;;5074296;28;20286;-60
2023/10/12 03:33:27;;;;;;;11.43;4.68;;;15.40;99.90;;;;;;5055460;28;20210;-60
2023/10/12 03:36:12;;;;;;;9.43;5.05;;;15.40;99.90;;;;;;5059845;28;20200;-60
2023/10/12 03:38:43;;;;;;;11.80;4.57;;;15.40;99.90;;;;;;5067542;28;20240;-60
2023/10/12 03:44:02;;;;;;;11.50;5.03;;;15.40;99.90;;;;;;5054285;28;20750;-60
2023/10/12 03:46:32;;;;;;;13.55;4.68;;;15.40;99.90;;;;;;5054016;28;20229;-59
2023/10/12 03:49:06;;;;;;;11.98;5.07;;;15.40;99.90;;;;;;5053930;28;20229;-60
2023/10/12 03:51:40;;;;;;;9.07;5.22;;;15.50;99.90;;;;;;5053925;28;20201;-60
2023/10/12 03:54:18;;;;;;;8.63;5.03;;;15.40;99.90;;;;;;5054103;28;20252;-60
2023/10/12 03:56:49;;;;;;;10.25;5.03;;;15.40;99.90;;;;;;5053907;28;20248;-60
2023/10/12 03:59:31;;;;;;;15.55;5.13;;;15.50;99.90;;;;;;5065644;28;20324;-60
2023/10/12 04:02:00;;;;;;;8.32;4.30;;;15.50;99.90;;;;;;5072533;28;20251;-59
2023/10/12 04:04:34;;;;;;;11.70;5.18;;;15.50;99.90;;;;;;5073730;28;20220;-60
2023/10/12 04:07:16;;;;;;;12.50;5.00;;;15.50;99.90;;;;;;5066314;28;20200;-60
2023/10/12 04:09:43;;;;;;;10.02;4.85;;;15.50;99.90;;;;;;5068278;28;20705;-60
2023/10/12 04:12:18;;;;;;;14.02;5.20;;;15.50;99.90;;;;;;5052898;28;20613;-60
2023/10/12 04:14:49;;;;;;;10.68;5.40;;;15.50;99.90;;;;;;5069211;28;20204;-60
2023/10/12 04:20:22;;;;;;;11.63;5.32;;;15.50;99.90;;;;;;5067163;28;20327;-60
2023/10/12 04:23:34;;;;;;;12.50;5.10;;;15.50;99.90;;;;;;5067825;28;20284;-60
2023/10/12 04:26:22;;;;;;;14.23;5.40;;;15.60;99.90;;;;;;5063339;28;20274;-60
2023/10/12 04:28:53;;;;;;;15.88;5.07;;;15.60;99.90;;;;;;5066571;28;20720;-60
2023/10/12 04:31:33;;;;;;;10.75;4.60;;;15.60;99.90;;;;;;5072875;28;20264;-60
2023/10/12 04:34:06;;;;;;;9.80;4.82;;;15.60;99.90;;;;;;5066232;28;20205;-60
2023/10/12 04:36:38;;;;;;;9.90;5.10;;;15.60;99.90;;;;;;5069378;28;20228;-60
2023/10/12 04:39:25;;;;;;;11.05;4.57;;;15.60;99.90;;;;;;5053000;28;20202;-60
2023/10/12 04:42:04;;;;;;;7.45;4.10;;;15.60;99.90;;;;;;5067555;28;20197;-60
2023/10/12 04:44:39;;;;;;;8.52;4.50;;;15.60;99.90;;;;;;5073195;28;20200;-60
2023/10/12 04:47:10;;;;;;;9.80;5.10;;;15.60;99.90;;;;;;5072614;28;20262;-60
2023/10/12 04:49:57;;;;;;;11.73;5.07;;;15.50;99.90;;;;;;5072814;28;20659;-60
2023/10/12 04:52:36;;;;;;;11.27;4.50;;;15.50;99.90;;;;;;5070310;28;20631;-60
2023/10/12 04:55:07;;;;;;;9.00;4.93;;;15.50;99.90;;;;;;5052895;28;20201;-60
2023/10/12 04:57:38;;;;;;;10.35;4.95;;;15.50;99.90;;;;;;5064871;28;20208;-60
2023/10/12 05:00:16;;;;;;;10.60;5.65;;;15.50;99.90;;;;;;5072626;28;20221;-60
2023/10/12 05:02:58;;;;;;;12.02;5.30;;;15.50;99.90;;;;;;5072634;28;20201;-60
2023/10/12 05:08:21;;;;;;;10.25;4.88;;;15.50;99.90;;;;;;5072609;28;20232;-60
2023/10/12 05:10:49;;;;;;;8.45;5.00;;;15.50;99.90;;;;;;5072323;28;20724;-60
2023/10/12 05:13:23;;;;;;;14.57;4.72;;;15.50;99.90;;;;;;5072520;28;20224;-60
2023/10/12 05:15:56;;;;;;;11.15;4.93;;;15.50;99.90;;;;;;5072232;28;20779;-60
2023/10/12 05:18:24;;;;;;;9.80;4.65;;;15.40;99.90;;;;;;5072292;28;20239;-60
2023/10/12 05:20:53;;;;;;;8.50;4.88;;;15.50;99.90;;;;;;5072002;28;20232;-60
2023/10/12 05:23:21;;;;;;;8.70;4.45;;;15.40;99.90;;;;;;5072283;28;20209;-60
2023/10/12 05:25:53;;;;;;;18.35;5.43;;;15.40;99.90;;;;;;5072045;28;20719;-60
2023/10/12 05:28:27;;;;;;;13.45;5.28;;;15.40;99.90;;;;;;5070879;28;20645;-60
2023/10/12 05:30:59;;;;;;;9.15;5.22;;;15.40;99.90;;;;;;5071831;28;20223;-61
2023/10/12 05:33:43;;;;;;;11.57;4.97;;;15.40;99.90;;;;;;5065638;28;20206;-62
2023/10/12 05:36:12;;;;;;;9.48;4.97;;;15.40;99.90;;;;;;5063583;28;20198;-62
2023/10/12 05:38:48;;;;;;;15.10;5.75;;;15.40;99.90;;;;;;5056573;28;20211;-62
2023/10/12 05:41:21;;;;;;;12.32;4.78;;;15.40;99.90;;;;;;5068258;28;20705;-62
2023/10/12 05:43:49;;;;;;;10.18;4.60;;;15.40;99.90;;;;;;5051812;28;20679;-62
2023/10/12 05:46:20;;;;;;;12.77;5.47;;;15.40;99.90;;;;;;5062567;28;20282;-61
2023/10/12 05:48:52;;;;;;;8.30;4.88;;;15.50;99.90;;;;;;5066139;28;20305;-61
2023/10/12 05:51:21;;;;;;;9.85;4.78;;;15.40;99.90;;;;;;5065488;28;20297;-61
2023/10/12 05:53:53;;;;;;;12.88;5.05;;;15.40;99.90;;;;;;5070436;28;20258;-61
2023/10/12 05:56:24;;;;;;;13.02;5.28;;;15.40;99.90;;;;;;5067563;28;20293;-60
2023/10/12 05:58:52;;;;;;;11.80;5.03;;;15.40;99.90;;;;;;5066620;28;20205;-61
2023/10/12 06:01:32;;;;;;;14.60;6.10;;;15.50;99.90;;;;;;5062847;28;20662;-61
2023/10/12 06:04:05;;;;;;;12.27;5.32;;;15.50;99.90;;;;;;5071884;28;20611;-61
2023/10/12 06:06:36;;;;;;;13.43;5.63;;;15.60;99.90;;;;;;5052166;28;20233;-61
2023/10/12 06:09:11;;;;;;;12.48;5.15;;;15.60;99.90;;;;;;5051945;28;20222;-61
2023/10/12 06:11:42;;;;;;;8.65;4.75;;;15.60;99.90;;;;;;5051577;28;20342;-61
2023/10/12 06:14:10;;;;;;;14.52;5.93;;;15.70;99.90;;;;;;5051854;28;20758;-61
2023/10/12 06:16:40;;;;;;;10.80;5.22;;;15.70;99.90;;;;;;5051581;28;20280;-61
2023/10/12 06:19:18;;;;;;;13.05;5.50;;;15.70;99.90;;;;;;5051612;28;20209;-61
2023/10/12 06:21:50;;;;;;;10.70;5.25;;;15.70;99.90;;;;;;5064306;28;20258;-61
2023/10/12 06:24:31;;;;;;;14.50;5.50;;;15.80;99.90;;;;;;5071737;28;20220;-61
2023/10/12 06:27:00;;;;;;;12.07;4.85;;;15.80;99.90;;;;;;5071386;28;20651;-61
2023/10/12 06:29:28;;;;;;;10.07;4.93;;;15.80;99.90;;;;;;5071257;28;20311;-61
2023/10/12 06:31:59;;;;;;;10.10;4.60;;;15.80;99.90;;;;;;5071228;28;20676;-61
2023/10/12 06:34:29;;;;;;;9.68;4.32;;;15.80;99.90;;;;;;5071735;28;20247;-61
2023/10/12 06:37:11;;;;;;;7.80;4.53;;;15.80;99.90;;;;;;5071525;28;20288;-61
2023/10/12 06:42:27;;;;;;;11.05;4.70;;;15.80;99.90;;;;;;5071189;28;20725;-61
2023/10/12 06:44:54;;;;;;;8.05;4.45;;;15.80;99.90;;;;;;5071475;28;20770;-61
2023/10/12 06:47:41;;;;;;;9.10;5.18;;;15.90;99.90;;;;;;5070360;28;20240;-61
2023/10/12 06:50:18;;;;;;;11.60;5.50;;;15.90;99.90;;;;;;5051382;28;20225;-61
2023/10/12 06:52:46;;;;;;;16.55;5.10;;;15.90;99.90;;;;;;5054533;28;20201;-61
2023/10/12 06:55:28;;;;;;;12.45;5.38;;;16.00;99.90;;;;;;5055437;28;20201;-61
2023/10/12 06:57:56;;;;;;;15.25;5.40;;;16.00;99.90;;;;;;5055509;28;20303;-61
2023/10/12 07:00:59;;;;;;;6.35;4.60;;;16.00;99.90;;;;;;5055065;28;20244;-61
2023/10/12 07:03:24;;;;;;;13.35;5.07;;;16.00;99.90;;;;;;5055086;28;20214;-61
2023/10/12 07:05:53;;;;;;;11.48;5.20;;;16.00;99.90;;;;;;5055201;28;20208;-61
2023/10/12 07:08:21;;;;;;;13.02;5.45;;;16.00;99.90;;;;;;5055172;28;20288;-61
2023/10/12 07:10:58;;;;;;;13.75;5.13;;;16.10;99.90;;;;;;5055134;28;20252;-61
2023/10/12 07:13:26;;;;;;;7.43;4.60;;;16.00;99.90;;;;;;5054765;28;20209;-61
2023/10/12 07:15:54;;;;;;;8.05;4.82;;;16.10;99.90;;;;;;5068358;28;20278;-61
2023/10/12 07:18:22;;;;;;;11.70;5.10;;;16.10;99.90;;;;;;5074863;28;20262;-61
2023/10/12 07:20:51;;;;;;;7.07;4.60;;;16.10;99.90;;;;;;5069786;28;20257;-61
2023/10/12 07:23:28;;;;;;;14.13;4.57;;;16.10;99.90;;;;;;5071620;28;20649;-61
2023/10/12 07:26:00;;;;;;;15.57;5.18;;;16.10;99.90;;;;;;5074353;28;20610;-61
2023/10/12 07:28:33;;;;;;;9.07;5.05;;;16.10;99.90;;;;;;5074628;28;20271;-61
2023/10/12 07:31:23;;;;;;;9.52;5.50;;;16.10;99.90;;;;;;5074080;28;20694;-61
2023/10/12 07:33:59;;;;;;;11.82;5.88;;;16.10;99.90;;;;;;5068642;28;20205;-61
2023/10/12 07:39:20;;;;;;;16.80;5.50;;;16.10;99.90;;;;;;5057845;28;20574;-61
2023/10/12 07:41:56;;;;;;;13.23;5.43;;;16.10;99.90;;;;;;5073606;28;20227;-61
2023/10/12 07:44:24;;;;;;;8.32;4.97;;;16.10;99.90;;;;;;5074106;28;20213;-61
2023/10/12 07:46:56;;;;;;;16.13;5.57;;;16.20;99.90;;;;;;5074034;28;20232;-61
2023/10/12 07:49:30;;;;;;;15.90;5.53;;;16.20;99.90;;;;;;5074124;28;20233;-61
2023/10/12 07:52:08;;;;;;;11.85;5.32;;;16.20;99.90;;;;;;5073583;28;20300;-61
2023/10/12 07:54:58;;;;;;;8.13;4.70;;;16.20;99.90;;;;;;5073871;28;20215;-61
2023/10/12 07:57:30;;;;;;;11.60;4.88;;;16.20;99.90;;;;;;5073982;28;20205;-61
2023/10/12 08:00:29;;;;;;;9.15;5.35;;;16.30;99.90;;;;;;5073998;28;20227;-61
2023/10/12 08:03:16;;;;;;;13.10;5.30;;;16.30;99.90;;;;;;5072635;28;20651;-61
2023/10/12 08:05:46;;;;;;;11.80;5.47;;;16.40;99.90;;;;;;5073633;28;20208;-61
2023/10/12 08:08:28;;;;;;;15.45;5.60;;;16.40;99.90;;;;;;5058065;28;20689;-61
2023/10/12 08:10:59;;;;;;;11.55;5.00;;;16.40;99.90;;;;;;5053264;28;20233;-61
2023/10/12 08:13:26;;;;;;;15.63;5.88;;;16.50;99.90;;;;;;5052540;28;20296;-61
2023/10/12 08:15:59;;;;;;;9.95;5.38;;;16.50;99.90;;;;;;5053758;28;20205;-61
2023/10/12 08:21:23;;;;;;;14.25;5.43;;;16.60;99.90;;;;;;5053195;28;20226;-60
2023/10/12 08:23:57;;;;;;;13.93;6.28;;;16.60;99.90;;;;;;5053211;28;20650;-60
2023/10/12 08:26:47;;;;;;;10.48;5.50;;;16.60;99.90;;;;;;5070661;28;20205;-61
2023/10/12 08:29:58;;;;;;;14.80;5.28;;;16.60;99.90;;;;;;5072940;28;20236;-61
2023/10/12 08:32:27;;;;;;;13.30;5.38;;;16.70;99.90;;;;;;5052985;28;20232;-60
2023/10/12 08:38:11;;;;;;;14.15;6.45;;;16.70;99.90;;;;;;5053033;28;20292;-61
2023/10/12 08:43:43;;;;;;;17.85;6.05;;;16.80;99.90;;;;;;5052630;28;20249;-61
2023/10/12 08:46:10;;;;;;;18.15;6.15;;;16.80;99.90;;;;;;5052849;28;20224;-61
2023/10/12 08:48:52;;;;;;;11.85;6.50;;;16.80;99.90;;;;;;5053067;28;20293;-61
2023/10/12 08:51:29;;;;;;;17.67;6.18;;;16.80;99.90;;;;;;5052790;28;20308;-61
2023/10/12 08:54:00;;;;;;;17.27;6.75;;;16.80;99.90;;;;;;5052979;28;20201;-61
2023/10/12 08:56:32;;;;;;;14.65;7.03;;;16.80;99.90;;;;;;5052674;28;20296;-61
2023/10/12 08:59:00;;;;;;;12.10;6.47;;;16.80;99.90;;;;;;5052654;28;20245;-62
2023/10/12 09:01:31;;;;;;;20.40;7.05;;;16.80;99.90;;;;;;5052170;28;20285;-61
2023/10/12 09:04:03;;;;;;;14.52;7.25;;;16.80;99.90;;;;;;5053135;28;20255;-61
2023/10/12 09:06:53;;;;;;;13.23;6.95;;;16.80;99.90;;;;;;5052622;28;20255;-61
2023/10/12 09:12:12;;;;;;;17.67;7.15;;;16.80;99.90;;;;;;5052437;28;20255;-62
2023/10/12 09:14:43;;;;;;;13.30;7.30;;;16.80;99.90;;;;;;5064212;28;20236;-62
2023/10/12 09:17:20;;;;;;;14.65;7.05;;;16.80;99.90;;;;;;5072245;28;20201;-62
2023/10/12 09:19:50;;;;;;;13.10;6.97;;;16.70;99.90;;;;;;5065332;28;20229;-60
2023/10/12 09:22:27;;;;;;;20.02;7.68;;;16.70;99.90;;;;;;5071768;28;20211;-61
2023/10/12 09:24:58;;;;;;;12.98;7.00;;;16.70;99.90;;;;;;5053290;28;20237;-61
2023/10/12 09:27:36;;;;;;;21.35;6.63;;;16.70;99.90;;;;;;5069188;28;20242;-61
2023/10/12 09:30:15;;;;;;;17.15;6.93;;;16.80;99.90;;;;;;5060120;28;20283;-61
2023/10/12 09:33:05;;;;;;;13.48;7.20;;;16.80;99.90;;;;;;5056398;28;20217;-61
2023/10/12 09:35:40;;;;;;;17.83;7.65;;;16.70;99.90;;;;;;5066699;28;20206;-61
2023/10/12 09:38:08;;;;;;;15.15;7.38;;;16.80;99.90;;;;;;5068479;28;20212;-61
2023/10/12 09:40:39;;;;;;;14.27;7.78;;;16.70;99.90;;;;;;5064232;28;20224;-62
2023/10/12 09:43:12;;;;;;;18.02;7.55;;;16.70;99.90;;;;;;5070722;28;20201;-61
2023/10/12 09:45:45;;;;;;;14.35;8.23;;;16.80;99.90;;;;;;5061242;28;20216;-61
2023/10/12 09:48:19;;;;;;;17.95;8.15;;;16.80;99.90;;;;;;5060457;28;20213;-61
2023/10/12 09:50:49;;;;;;;15.73;8.10;;;16.80;99.90;;;;;;5066447;28;20224;-61
2023/10/12 09:53:24;;;;;;;14.32;7.18;;;16.90;99.90;;;;;;5062446;28;20293;-61
2023/10/12 09:56:03;;;;;;;9.77;7.15;;;16.90;99.90;;;;;;5058869;28;20258;-62
2023/10/12 09:58:34;;;;;;;15.20;7.18;;;16.90;99.90;;;;;;5062267;28;20303;-62
2023/10/12 10:01:07;;;;;;;16.98;7.25;;;16.90;99.90;;;;;;5068755;28;20217;-62
2023/10/12 10:03:47;;;;;;;20.58;7.45;;;17.00;99.90;;;;;;5071419;28;20685;-62
2023/10/12 10:06:29;;;;;;;11.20;6.40;;;17.00;99.90;;;;;;5071461;28;20295;-62
2023/10/12 10:11:45;;;;;;;18.02;7.03;;;17.00;99.90;;;;;;5056191;28;20315;-62
2023/10/12 10:14:20;;;;;;;15.80;7.18;;;17.10;99.90;;;;;;5051762;28;20202;-62
2023/10/12 10:16:57;;;;;;;13.38;6.97;;;17.10;99.90;;;;;;5051637;28;20212;-62
2023/10/12 10:19:29;;;;;;;13.32;6.82;;;17.00;99.90;;;;;;5051310;28;20319;-62
2023/10/12 10:22:05;;;;;;;10.68;7.03;;;17.10;99.90;;;;;;5051017;28;20197;-62
2023/10/12 10:24:45;;;;;;;15.18;7.50;;;17.10;99.90;;;;;;5051236;28;20716;-62
2023/10/12 10:27:14;;;;;;;13.52;6.93;;;17.10;99.90;;;;;;5050893;28;20255;-62
2023/10/12 10:29:53;;;;;;;18.05;7.45;;;17.10;99.90;;;;;;5051415;28;20316;-62
2023/10/12 10:32:29;;;;;;;14.77;7.82;;;17.10;99.90;;;;;;5050943;28;20205;-62
2023/10/12 10:34:59;;;;;;;11.35;7.60;;;17.20;99.90;;;;;;5063918;28;20205;-62
2023/10/12 10:37:47;;;;;;;15.27;8.05;;;17.20;99.90;;;;;;5070981;28;20205;-62
2023/10/12 10:40:17;;;;;;;17.58;8.15;;;17.20;99.90;;;;;;5071155;28;20224;-62
2023/10/12 10:42:57;;;;;;;16.52;7.65;;;17.20;99.90;;;;;;5070632;28;20205;-62
2023/10/12 10:45:27;;;;;;;15.80;7.82;;;17.20;99.90;;;;;;5070976;28;20208;-62
2023/10/12 10:47:56;;;;;;;12.43;7.65;;;17.20;99.90;;;;;;5071072;28;20230;-62
2023/10/12 10:50:27;;;;;;;16.45;7.50;;;17.20;99.90;;;;;;5070912;28;20617;-62
2023/10/12 10:52:59;;;;;;;14.07;7.35;;;17.20;99.90;;;;;;5067795;28;20208;-62
2023/10/12 10:55:31;;;;;;;22.23;8.35;;;17.30;99.90;;;;;;5061605;28;20205;-61
2023/10/12 10:58:00;;;;;;;12.50;8.18;;;17.30;99.90;;;;;;5069840;28;20230;-61
2023/10/12 11:00:44;;;;;;;13.35;7.93;;;17.40;99.90;;;;;;5054349;28;20699;-61
2023/10/12 11:03:15;;;;;;;13.48;7.40;;;17.40;99.90;;;;;;5059221;28;20291;-62
2023/10/12 11:05:46;;;;;;;18.27;8.60;;;17.40;99.90;;;;;;5050711;28;20255;-62
2023/10/12 11:08:21;;;;;;;18.27;8.23;;;17.40;99.90;;;;;;5051001;28;20251;-62
2023/10/12 11:13:38;;;;;;;20.05;8.35;;;17.30;99.90;;;;;;5050805;28;20288;-62
2023/10/12 11:16:21;;;;;;;12.20;7.53;;;17.40;99.90;;;;;;5052518;28;20209;-62
2023/10/12 11:18:49;;;;;;;10.48;7.60;;;17.40;99.90;;;;;;5060380;28;20295;-62
2023/10/12 11:21:17;;;;;;;21.00;8.32;;;17.40;99.90;;;;;;5070198;28;20224;-62
2023/10/12 11:23:45;;;;;;;12.43;8.32;;;17.40;99.90;;;;;;5052214;28;20298;-62
2023/10/12 11:26:17;;;;;;;13.43;8.40;;;17.40;99.90;;;;;;5050504;28;20296;-62
2023/10/12 11:28:45;;;;;;;20.35;8.18;;;17.40;99.90;;;;;;5050650;28;20217;-62
2023/10/12 11:31:30;;;;;;;18.15;8.45;;;17.40;99.90;;;;;;5050463;28;20225;-62
2023/10/12 11:33:59;;;;;;;14.32;7.93;;;17.40;99.90;;;;;;5063110;28;20236;-62
2023/10/12 11:36:27;;;;;;;19.13;8.13;;;17.40;99.90;;;;;;5070620;28;20201;-62
2023/10/12 11:39:01;;;;;;;14.38;8.30;;;17.40;99.90;;;;;;5073443;28;20197;-62
2023/10/12 11:41:29;;;;;;;10.32;7.68;;;17.40;99.90;;;;;;5073966;28;20247;-61
2023/10/12 11:44:00;;;;;;;12.73;7.93;;;17.50;99.90;;;;;;5074230;28;20209;-62
2023/10/12 11:46:45;;;;;;;13.65;8.05;;;17.50;99.90;;;;;;5072651;28;20258;-62
2023/10/12 11:49:13;;;;;;;15.18;8.70;;;17.50;99.90;;;;;;5073551;28;20211;-62
2023/10/12 11:51:50;;;;;;;16.83;8.75;;;17.50;99.90;;;;;;5073317;28;20258;-62
2023/10/12 11:54:22;;;;;;;15.45;8.13;;;17.50;99.90;;;;;;5071851;28;20203;-62
2023/10/12 11:56:51;;;;;;;14.35;8.73;;;17.50;99.90;;;;;;5053486;28;20205;-62
2023/10/12 11:59:26;;;;;;;16.75;9.18;;;17.50;99.90;;;;;;5070913;28;20581;-62
2023/10/12 12:01:57;;;;;;;19.90;9.23;;;17.50;99.90;;;;;;5053724;28;20193;-62
2023/10/12 12:04:32;;;;;;;11.20;8.80;;;17.60;99.90;;;;;;5057640;28;20227;-62
2023/10/12 12:07:02;;;;;;;12.25;8.95;;;17.60;99.90;;;;;;5053040;28;20210;-62
2023/10/12 12:09:30;;;;;;;13.48;9.20;;;17.60;99.90;;;;;;5053464;28;20312;-62
2023/10/12 12:12:00;;;;;;;15.50;9.15;;;17.70;99.90;;;;;;5065241;28;20316;-61
2023/10/12 12:14:28;;;;;;;15.07;8.93;;;17.70;99.90;;;;;;5064644;28;20212;-61
2023/10/12 12:16:57;;;;;;;17.25;9.40;;;17.70;99.90;;;;;;5057520;28;20200;-61
2023/10/12 12:19:25;;;;;;;16.67;8.65;;;17.80;99.90;;;;;;5070331;28;20724;-61
2023/10/12 12:21:53;;;;;;;16.15;9.10;;;17.80;99.90;;;;;;5065263;28;20205;-62
2023/10/12 12:24:24;;;;;;;20.70;8.60;;;17.90;99.90;;;;;;5070896;28;20704;-61
2023/10/12 12:26:53;;;;;;;17.33;8.60;;;18.00;99.90;;;;;;5057649;28;20201;-61
2023/10/12 12:29:25;;;;;;;14.93;8.50;;;18.10;99.90;;;;;;5062135;28;20213;-61
2023/10/12 12:32:03;;;;;;;14.18;9.43;;;18.10;99.90;;;;;;5059869;28;20234;-61
2023/10/12 12:34:38;;;;;;;15.85;9.45;;;18.10;99.90;;;;;;5072042;28;20201;-61
2023/10/12 12:37:06;;;;;;;17.90;8.95;;;18.20;99.90;;;;;;5065006;28;20200;-61
2023/10/12 12:39:34;;;;;;;15.45;9.13;;;18.20;99.90;;;;;;5065138;28;20229;-61
2023/10/12 12:42:02;;;;;;;18.88;9.75;;;18.20;99.90;;;;;;5060721;28;20198;-62
2023/10/12 12:44:30;;;;;;;15.57;8.98;;;18.20;99.90;;;;;;5068109;28;20255;-62
2023/10/12 12:46:59;;;;;;;16.48;9.25;;;18.20;99.90;;;;;;5071292;28;20296;-62
2023/10/12 12:49:29;;;;;;;18.77;8.32;;;18.20;99.90;;;;;;5058356;28;20233;-61
2023/10/12 12:51:58;;;;;;;13.93;8.63;;;18.10;99.90;;;;;;5062104;28;20248;-60
2023/10/12 12:54:26;;;;;;;13.82;9.13;;;18.10;99.90;;;;;;5070896;28;20205;-62
2023/10/12 12:56:54;;;;;;;15.35;8.77;;;18.10;99.90;;;;;;5056667;28;20643;-62
2023/10/12 12:59:23;;;;;;;16.23;8.40;;;18.00;99.90;;;;;;5059561;28;20204;-62
2023/10/12 13:01:51;;;;;;;17.02;8.50;;;18.00;99.90;;;;;;5060489;28;20836;-61
2023/10/12 13:04:19;;;;;;;19.48;8.88;;;18.00;99.90;;;;;;5065518;28;20232;-62
2023/10/12 13:06:51;;;;;;;12.50;8.05;;;18.00;99.90;;;;;;5068097;28;20615;-61
2023/10/12 13:09:33;;;;;;;17.42;8.43;;;17.90;99.90;;;;;;5058091;28;20216;-61
2023/10/12 13:12:05;;;;;;;16.88;7.72;;;17.90;99.90;;;;;;5061377;28;20606;-61
2023/10/12 13:14:33;;;;;;;13.20;7.85;;;17.90;99.90;;;;;;5059970;28;20209;-61
2023/10/12 13:17:00;;;;;;;14.43;9.07;;;17.90;99.90;;;;;;5051928;28;20296;-60
2023/10/12 13:19:31;;;;;;;18.90;8.48;;;17.90;99.90;;;;;;5062117;28;20315;-61
2023/10/12 13:22:00;;;;;;;12.05;7.85;;;17.90;99.90;;;;;;5055949;28;20192;-62
2023/10/12 13:24:35;;;;;;;11.75;8.00;;;17.90;99.90;;;;;;5069748;28;20647;-62
2023/10/12 13:27:08;;;;;;;15.38;8.63;;;17.90;99.90;;;;;;5059461;28;20205;-62
2023/10/12 13:29:36;;;;;;;12.93;8.35;;;17.90;99.90;;;;;;5051964;28;20228;-62
2023/10/12 13:32:08;;;;;;;15.90;8.75;;;17.80;99.90;;;;;;5069599;28;20626;-61
2023/10/12 13:34:36;;;;;;;14.93;8.93;;;17.80;99.90;;;;;;5071207;28;20204;-61
2023/10/12 13:37:06;;;;;;;14.10;8.80;;;17.80;99.90;;;;;;5062694;28;20201;-61
2023/10/12 13:39:34;;;;;;;20.50;9.65;;;17.80;99.90;;;;;;5055020;28;20222;-62
2023/10/12 13:42:05;;;;;;;18.65;9.43;;;17.80;99.90;;;;;;5051604;28;20205;-61
2023/10/12 13:44:34;;;;;;;16.17;10.30;;;17.70;99.90;;;;;;5071831;28;20208;-61